sensor_id;sensor_type;location;lat;lon;timestamp;pressure;altitude;pressure_sealevel;temperature;humidity
53546;BME280;39432;51.902;10.844;2023-04-22T00:00:19;99160.91;;;9.76;100.00
53546;BME280;39432;51.902;10.844;2023-04-22T00:02:48;99160.41;;;9.85;100.00
53546;BME280;39432;51.902;10.844;2023-04-22T00:05:21;99157.81;;;8.98;100.00
53546;BME280;39432;51.902;10.844;2023-04-22T00:07:51;99153.13;;;8.94;100.00
53546;BME280;39432;51.902;10.844;2023-04-22T00:10:21;99158.53;;;8.62;100.00
53546;BME280;39432;51.902;10.844;2023-04-22T00:12:50;99151.22;;;8.94;100.00
53546;BME280;39432;51.902;10.844;2023-04-22T00:15:20;99145.38;;;8.81;100.00
53546;BME280;39432;51.902;10.844;2023-04-22T00:17:51;99139.94;;;8.81;100.00
53546;BME280;39432;51.902;10.844;2023-04-22T00:20:24;99137.59;;;8.67;100.00
53546;BME280;39432;51.902;10.844;2023-04-22T00:22:55;99140.06;;;8.96;100.00
53546;BME280;39432;51.902;10.844;2023-04-22T00:25:24;99129.31;;;9.16;100.00
53546;BME280;39432;51.902;10.844;2023-04-22T00:27:54;99132.72;;;8.96;100.00
53546;BME280;39432;51.902;10.844;2023-04-22T00:30:24;99139.97;;;8.86;100.00
53546;BME280;39432;51.902;10.844;2023-04-22T00:32:54;99128.13;;;9.02;100.00
53546;BME280;39432;51.902;10.844;2023-04-22T00:35:26;99130.81;;;8.97;100.00
53546;BME280;39432;51.902;10.844;2023-04-22T00:37:56;99129.63;;;8.88;100.00
53546;BME280;39432;51.902;10.844;2023-04-22T00:40:26;99130.53;;;8.44;100.00
53546;BME280;39432;51.902;10.844;2023-04-22T00:42:57;99132.25;;;8.78;100.00
53546;BME280;39432;51.902;10.844;2023-04-22T00:45:29;99122.78;;;8.85;100.00
53546;BME280;39432;51.902;10.844;2023-04-22T00:47:59;99124.88;;;8.78;100.00
53546;BME280;39432;51.902;10.844;2023-04-22T00:50:32;99121.03;;;8.74;100.00
53546;BME280;39432;51.902;10.844;2023-04-22T00:53:01;99112.53;;;8.70;100.00
53546;BME280;39432;51.902;10.844;2023-04-22T00:55:31;99126.16;;;8.43;100.00
53546;BME280;39432;51.902;10.844;2023-04-22T00:58:02;99121.16;;;8.62;100.00
53546;BME280;39432;51.902;10.844;2023-04-22T01:00:32;99118.81;;;8.98;100.00
53546;BME280;39432;51.902;10.844;2023-04-22T01:03:02;99130.00;;;9.34;100.00
53546;BME280;39432;51.902;10.844;2023-04-22T01:05:36;99128.44;;;9.11;100.00
53546;BME280;39432;51.902;10.844;2023-04-22T01:08:06;99123.53;;;9.08;100.00
53546;BME280;39432;51.902;10.844;2023-04-22T01:10:37;99118.81;;;8.44;100.00
53546;BME280;39432;51.902;10.844;2023-04-22T01:13:07;99120.44;;;8.99;100.00
53546;BME280;39432;51.902;10.844;2023-04-22T01:15:37;99121.72;;;9.18;100.00
53546;BME280;39432;51.902;10.844;2023-04-22T01:18:07;99121.81;;;9.34;100.00
53546;BME280;39432;51.902;10.844;2023-04-22T01:20:39;99117.47;;;9.75;100.00
53546;BME280;39432;51.902;10.844;2023-04-22T01:23:16;99115.16;;;8.60;100.00
53546;BME280;39432;51.902;10.844;2023-04-22T01:25:48;99114.72;;;8.68;100.00
53546;BME280;39432;51.902;10.844;2023-04-22T01:28:18;99129.41;;;8.67;100.00
53546;BME280;39432;51.902;10.844;2023-04-22T01:30:48;99123.25;;;8.77;100.00
53546;BME280;39432;51.902;10.844;2023-04-22T01:33:18;99131.16;;;8.08;100.00
53546;BME280;39432;51.902;10.844;2023-04-22T01:35:48;99133.09;;;7.35;100.00
53546;BME280;39432;51.902;10.844;2023-04-22T01:38:20;99135.47;;;7.65;100.00
53546;BME280;39432;51.902;10.844;2023-04-22T01:40:50;99131.66;;;7.83;100.00
53546;BME280;39432;51.902;10.844;2023-04-22T01:43:20;99135.22;;;7.66;100.00
53546;BME280;39432;51.902;10.844;2023-04-22T01:45:50;99143.94;;;7.69;100.00
53546;BME280;39432;51.902;10.844;2023-04-22T01:48:20;99140.22;;;7.53;100.00
53546;BME280;39432;51.902;10.844;2023-04-22T01:50:49;99139.78;;;7.44;100.00
53546;BME280;39432;51.902;10.844;2023-04-22T01:53:22;99134.63;;;7.26;100.00
53546;BME280;39432;51.902;10.844;2023-04-22T01:55:52;99137.06;;;7.44;100.00
53546;BME280;39432;51.902;10.844;2023-04-22T01:58:21;99129.47;;;7.46;100.00
53546;BME280;39432;51.902;10.844;2023-04-22T02:00:51;99133.28;;;7.28;100.00
53546;BME280;39432;51.902;10.844;2023-04-22T02:03:21;99133.38;;;7.17;100.00
53546;BME280;39432;51.902;10.844;2023-04-22T02:05:52;99134.94;;;7.12;100.00
53546;BME280;39432;51.902;10.844;2023-04-22T02:08:24;99134.75;;;7.36;100.00
53546;BME280;39432;51.902;10.844;2023-04-22T02:10:54;99139.16;;;7.37;100.00
53546;BME280;39432;51.902;10.844;2023-04-22T02:13:26;99152.22;;;7.57;100.00
53546;BME280;39432;51.902;10.844;2023-04-22T02:16:03;99148.25;;;8.03;100.00
53546;BME280;39432;51.902;10.844;2023-04-22T02:18:33;99141.34;;;7.40;100.00
53546;BME280;39432;51.902;10.844;2023-04-22T02:21:02;99145.50;;;7.26;100.00
53546;BME280;39432;51.902;10.844;2023-04-22T02:23:35;99136.81;;;7.29;100.00
53546;BME280;39432;51.902;10.844;2023-04-22T02:26:06;99145.16;;;7.22;100.00
53546;BME280;39432;51.902;10.844;2023-04-22T02:28:36;99146.78;;;7.40;100.00
53546;BME280;39432;51.902;10.844;2023-04-22T02:31:07;99132.72;;;7.43;100.00
53546;BME280;39432;51.902;10.844;2023-04-22T02:33:39;99131.81;;;7.21;100.00
53546;BME280;39432;51.902;10.844;2023-04-22T02:36:09;99129.19;;;7.26;100.00
53546;BME280;39432;51.902;10.844;2023-04-22T02:38:41;99135.81;;;7.52;100.00
53546;BME280;39432;51.902;10.844;2023-04-22T02:41:13;99120.03;;;7.71;100.00
53546;BME280;39432;51.902;10.844;2023-04-22T02:43:43;99123.25;;;7.68;100.00
53546;BME280;39432;51.902;10.844;2023-04-22T02:46:13;99118.91;;;7.50;100.00
53546;BME280;39432;51.902;10.844;2023-04-22T02:48:44;99107.94;;;7.61;100.00
53546;BME280;39432;51.902;10.844;2023-04-22T02:51:14;99111.88;;;7.71;100.00
53546;BME280;39432;51.902;10.844;2023-04-22T02:53:47;99112.56;;;7.44;100.00
53546;BME280;39432;51.902;10.844;2023-04-22T02:56:16;99111.56;;;7.50;100.00
53546;BME280;39432;51.902;10.844;2023-04-22T02:58:46;99115.63;;;7.48;100.00
53546;BME280;39432;51.902;10.844;2023-04-22T03:01:16;99108.22;;;7.26;100.00
53546;BME280;39432;51.902;10.844;2023-04-22T03:03:46;99111.34;;;7.01;100.00
53546;BME280;39432;51.902;10.844;2023-04-22T03:06:20;99117.69;;;7.24;100.00
53546;BME280;39432;51.902;10.844;2023-04-22T03:08:53;99118.94;;;6.82;100.00
53546;BME280;39432;51.902;10.844;2023-04-22T03:11:23;99112.25;;;6.90;100.00
53546;BME280;39432;51.902;10.844;2023-04-22T03:13:53;99120.06;;;6.86;100.00
53546;BME280;39432;51.902;10.844;2023-04-22T03:16:23;99113.16;;;6.79;100.00
53546;BME280;39432;51.902;10.844;2023-04-22T03:18:54;99107.19;;;6.48;100.00
53546;BME280;39432;51.902;10.844;2023-04-22T03:21:24;99110.41;;;6.33;100.00
53546;BME280;39432;51.902;10.844;2023-04-22T03:23:57;99115.09;;;6.10;100.00
53546;BME280;39432;51.902;10.844;2023-04-22T03:26:30;99103.00;;;6.29;100.00
53546;BME280;39432;51.902;10.844;2023-04-22T03:29:00;99105.53;;;6.64;100.00
53546;BME280;39432;51.902;10.844;2023-04-22T03:31:30;99102.44;;;6.72;100.00
53546;BME280;39432;51.902;10.844;2023-04-22T03:34:00;99097.53;;;6.57;100.00
53546;BME280;39432;51.902;10.844;2023-04-22T03:36:30;99087.22;;;6.43;100.00
53546;BME280;39432;51.902;10.844;2023-04-22T03:39:03;99090.13;;;6.24;100.00
53546;BME280;39432;51.902;10.844;2023-04-22T03:41:34;99088.53;;;6.40;100.00
53546;BME280;39432;51.902;10.844;2023-04-22T03:44:04;99092.84;;;6.53;100.00
53546;BME280;39432;51.902;10.844;2023-04-22T03:46:35;99094.81;;;6.57;100.00
53546;BME280;39432;51.902;10.844;2023-04-22T03:49:16;99090.91;;;6.82;100.00
53546;BME280;39432;51.902;10.844;2023-04-22T03:51:46;99106.63;;;6.80;100.00
53546;BME280;39432;51.902;10.844;2023-04-22T03:54:23;99090.09;;;6.98;100.00
53546;BME280;39432;51.902;10.844;2023-04-22T03:56:54;99090.03;;;6.93;100.00
53546;BME280;39432;51.902;10.844;2023-04-22T03:59:25;99098.66;;;6.90;100.00
53546;BME280;39432;51.902;10.844;2023-04-22T04:01:54;99082.81;;;6.70;100.00
53546;BME280;39432;51.902;10.844;2023-04-22T04:04:25;99085.56;;;6.42;100.00
53546;BME280;39432;51.902;10.844;2023-04-22T04:06:59;99081.50;;;6.56;100.00
53546;BME280;39432;51.902;10.844;2023-04-22T04:09:32;99089.00;;;6.37;100.00
53546;BME280;39432;51.902;10.844;2023-04-22T04:12:02;99094.38;;;6.77;100.00
53546;BME280;39432;51.902;10.844;2023-04-22T04:14:37;99086.75;;;6.63;100.00
53546;BME280;39432;51.902;10.844;2023-04-22T04:17:09;99090.31;;;6.34;100.00
53546;BME280;39432;51.902;10.844;2023-04-22T04:19:40;99087.88;;;6.33;100.00
53546;BME280;39432;51.902;10.844;2023-04-22T04:22:10;99088.91;;;6.60;100.00
53546;BME280;39432;51.902;10.844;2023-04-22T04:24:51;99087.34;;;6.65;100.00
53546;BME280;39432;51.902;10.844;2023-04-22T04:27:25;99090.41;;;6.85;100.00
53546;BME280;39432;51.902;10.844;2023-04-22T04:29:55;99090.75;;;6.89;100.00
53546;BME280;39432;51.902;10.844;2023-04-22T04:32:40;99090.25;;;7.08;100.00
53546;BME280;39432;51.902;10.844;2023-04-22T04:35:13;99096.84;;;7.29;100.00
53546;BME280;39432;51.902;10.844;2023-04-22T04:37:49;99090.91;;;7.16;100.00
53546;BME280;39432;51.902;10.844;2023-04-22T04:40:22;99091.47;;;7.34;100.00
53546;BME280;39432;51.902;10.844;2023-04-22T04:43:03;99088.28;;;7.98;100.00
53546;BME280;39432;51.902;10.844;2023-04-22T04:45:45;99081.72;;;8.21;100.00
53546;BME280;39432;51.902;10.844;2023-04-22T04:48:20;99073.28;;;9.41;100.00
53546;BME280;39432;51.902;10.844;2023-04-22T04:50:54;99063.94;;;9.32;100.00
53546;BME280;39432;51.902;10.844;2023-04-22T04:53:27;99046.03;;;10.14;100.00
53546;BME280;39432;51.902;10.844;2023-04-22T04:56:00;99043.13;;;10.41;100.00
53546;BME280;39432;51.902;10.844;2023-04-22T04:58:29;99040.03;;;10.12;100.00
53546;BME280;39432;51.902;10.844;2023-04-22T05:01:21;99039.59;;;9.67;100.00
53546;BME280;39432;51.902;10.844;2023-04-22T05:03:51;99040.66;;;10.29;100.00
53546;BME280;39432;51.902;10.844;2023-04-22T05:06:21;99046.47;;;10.73;100.00
53546;BME280;39432;51.902;10.844;2023-04-22T05:08:57;99054.25;;;9.51;100.00
53546;BME280;39432;51.902;10.844;2023-04-22T05:11:30;99048.41;;;9.85;100.00
53546;BME280;39432;51.902;10.844;2023-04-22T05:14:04;99052.44;;;10.40;100.00
53546;BME280;39432;51.902;10.844;2023-04-22T05:16:39;99059.06;;;9.39;100.00
53546;BME280;39432;51.902;10.844;2023-04-22T05:19:09;99052.69;;;10.33;100.00
53546;BME280;39432;51.902;10.844;2023-04-22T05:21:40;99046.97;;;10.60;100.00
53546;BME280;39432;51.902;10.844;2023-04-22T05:24:09;99050.69;;;10.18;100.00
53546;BME280;39432;51.902;10.844;2023-04-22T05:26:42;99048.06;;;11.25;100.00
53546;BME280;39432;51.902;10.844;2023-04-22T05:29:15;99049.44;;;11.38;100.00
53546;BME280;39432;51.902;10.844;2023-04-22T05:31:46;99047.38;;;12.00;100.00
53546;BME280;39432;51.902;10.844;2023-04-22T05:34:15;99046.44;;;12.69;100.00
53546;BME280;39432;51.902;10.844;2023-04-22T05:36:45;99047.59;;;12.58;100.00
53546;BME280;39432;51.902;10.844;2023-04-22T05:39:15;99043.56;;;12.45;100.00
53546;BME280;39432;51.902;10.844;2023-04-22T05:41:48;99048.03;;;11.51;100.00
53546;BME280;39432;51.902;10.844;2023-04-22T05:44:17;99046.59;;;12.44;100.00
53546;BME280;39432;51.902;10.844;2023-04-22T05:46:47;99040.75;;;12.06;100.00
53546;BME280;39432;51.902;10.844;2023-04-22T05:49:19;99030.16;;;12.78;100.00
53546;BME280;39432;51.902;10.844;2023-04-22T05:52:13;99037.19;;;12.55;100.00
53546;BME280;39432;51.902;10.844;2023-04-22T05:54:55;99032.84;;;12.88;100.00
53546;BME280;39432;51.902;10.844;2023-04-22T05:57:28;99036.81;;;12.27;100.00
53546;BME280;39432;51.902;10.844;2023-04-22T06:00:02;99035.69;;;12.33;100.00
53546;BME280;39432;51.902;10.844;2023-04-22T06:02:38;99037.78;;;13.20;100.00
53546;BME280;39432;51.902;10.844;2023-04-22T06:05:08;99028.25;;;13.89;100.00
53546;BME280;39432;51.902;10.844;2023-04-22T06:07:39;99030.25;;;13.60;100.00
53546;BME280;39432;51.902;10.844;2023-04-22T06:10:08;99032.56;;;12.84;100.00
53546;BME280;39432;51.902;10.844;2023-04-22T06:12:41;99030.97;;;13.47;100.00
53546;BME280;39432;51.902;10.844;2023-04-22T06:15:11;99026.47;;;12.92;100.00
53546;BME280;39432;51.902;10.844;2023-04-22T06:17:40;99018.88;;;14.14;100.00
53546;BME280;39432;51.902;10.844;2023-04-22T06:20:11;99019.38;;;13.74;100.00
53546;BME280;39432;51.902;10.844;2023-04-22T06:22:41;99022.31;;;13.58;100.00
53546;BME280;39432;51.902;10.844;2023-04-22T06:25:11;99027.41;;;12.38;100.00
53546;BME280;39432;51.902;10.844;2023-04-22T06:27:43;99032.38;;;13.10;100.00
53546;BME280;39432;51.902;10.844;2023-04-22T06:30:14;99023.22;;;13.49;100.00
53546;BME280;39432;51.902;10.844;2023-04-22T06:32:43;99022.72;;;14.56;100.00
53546;BME280;39432;51.902;10.844;2023-04-22T06:35:13;99018.22;;;14.41;100.00
53546;BME280;39432;51.902;10.844;2023-04-22T06:37:43;99018.91;;;14.52;100.00
53546;BME280;39432;51.902;10.844;2023-04-22T06:40:14;99014.09;;;13.77;100.00
53546;BME280;39432;51.902;10.844;2023-04-22T06:43:01;99013.41;;;13.90;100.00
53546;BME280;39432;51.902;10.844;2023-04-22T06:46:06;99016.41;;;14.13;100.00
53546;BME280;39432;51.902;10.844;2023-04-22T06:49:08;99017.94;;;14.62;100.00
53546;BME280;39432;51.902;10.844;2023-04-22T06:52:05;99007.66;;;14.48;100.00
53546;BME280;39432;51.902;10.844;2023-04-22T06:54:35;99014.22;;;15.04;100.00
53546;BME280;39432;51.902;10.844;2023-04-22T06:57:04;99009.78;;;13.71;100.00
53546;BME280;39432;51.902;10.844;2023-04-22T06:59:37;99008.22;;;14.08;100.00
53546;BME280;39432;51.902;10.844;2023-04-22T07:02:10;99008.00;;;13.32;100.00
53546;BME280;39432;51.902;10.844;2023-04-22T07:04:40;99002.75;;;13.60;100.00
53546;BME280;39432;51.902;10.844;2023-04-22T07:07:10;99011.31;;;14.63;100.00
53546;BME280;39432;51.902;10.844;2023-04-22T07:09:40;99002.91;;;15.06;100.00
53546;BME280;39432;51.902;10.844;2023-04-22T07:12:10;99003.75;;;14.12;100.00
53546;BME280;39432;51.902;10.844;2023-04-22T07:14:44;99007.31;;;15.07;100.00
53546;BME280;39432;51.902;10.844;2023-04-22T07:17:14;98996.34;;;15.62;100.00
53546;BME280;39432;51.902;10.844;2023-04-22T07:19:45;99004.53;;;15.07;100.00
53546;BME280;39432;51.902;10.844;2023-04-22T07:22:14;99007.31;;;15.20;100.00
53546;BME280;39432;51.902;10.844;2023-04-22T07:24:44;98998.16;;;15.25;100.00
53546;BME280;39432;51.902;10.844;2023-04-22T07:27:14;98990.13;;;16.47;100.00
53546;BME280;39432;51.902;10.844;2023-04-22T07:29:46;98999.03;;;15.94;100.00
53546;BME280;39432;51.902;10.844;2023-04-22T07:32:16;98994.94;;;16.42;100.00
53546;BME280;39432;51.902;10.844;2023-04-22T07:34:46;98994.75;;;15.88;100.00
53546;BME280;39432;51.902;10.844;2023-04-22T07:37:15;99008.22;;;15.76;100.00
53546;BME280;39432;51.902;10.844;2023-04-22T07:39:45;98992.22;;;16.28;100.00
53546;BME280;39432;51.902;10.844;2023-04-22T07:42:15;98990.03;;;16.75;100.00
53546;BME280;39432;51.902;10.844;2023-04-22T07:44:47;98986.19;;;16.76;100.00
53546;BME280;39432;51.902;10.844;2023-04-22T07:47:17;98990.31;;;16.51;100.00
53546;BME280;39432;51.902;10.844;2023-04-22T07:49:46;98983.94;;;16.86;100.00
53546;BME280;39432;51.902;10.844;2023-04-22T07:52:16;98993.97;;;17.27;100.00
53546;BME280;39432;51.902;10.844;2023-04-22T07:54:46;98986.50;;;17.28;100.00
53546;BME280;39432;51.902;10.844;2023-04-22T07:57:16;98984.31;;;17.47;100.00
53546;BME280;39432;51.902;10.844;2023-04-22T07:59:51;98976.31;;;17.77;100.00
53546;BME280;39432;51.902;10.844;2023-04-22T08:02:20;98974.03;;;17.79;97.48
53546;BME280;39432;51.902;10.844;2023-04-22T08:04:50;98970.72;;;18.60;94.62
53546;BME280;39432;51.902;10.844;2023-04-22T08:07:20;98979.19;;;18.20;93.84
53546;BME280;39432;51.902;10.844;2023-04-22T08:09:53;98966.84;;;18.52;96.67
53546;BME280;39432;51.902;10.844;2023-04-22T08:12:23;98961.78;;;18.54;96.56
53546;BME280;39432;51.902;10.844;2023-04-22T08:14:55;98976.38;;;17.54;94.48
53546;BME280;39432;51.902;10.844;2023-04-22T08:17:26;98972.34;;;18.43;99.19
53546;BME280;39432;51.902;10.844;2023-04-22T08:19:56;98978.78;;;17.87;100.00
53546;BME280;39432;51.902;10.844;2023-04-22T08:22:26;98974.16;;;18.31;100.00
53546;BME280;39432;51.902;10.844;2023-04-22T08:24:56;98967.16;;;18.25;100.00
53546;BME280;39432;51.902;10.844;2023-04-22T08:27:25;98966.59;;;18.05;100.00
53546;BME280;39432;51.902;10.844;2023-04-22T08:29:58;98965.59;;;17.84;100.00
53546;BME280;39432;51.902;10.844;2023-04-22T08:32:27;98971.50;;;18.00;100.00
53546;BME280;39432;51.902;10.844;2023-04-22T08:34:57;98958.97;;;18.11;100.00
53546;BME280;39432;51.902;10.844;2023-04-22T08:37:31;98962.06;;;18.09;100.00
53546;BME280;39432;51.902;10.844;2023-04-22T08:40:01;98956.41;;;18.75;100.00
53546;BME280;39432;51.902;10.844;2023-04-22T08:42:31;98952.75;;;19.56;96.77
53546;BME280;39432;51.902;10.844;2023-04-22T08:45:04;98947.00;;;20.50;82.61
53546;BME280;39432;51.902;10.844;2023-04-22T08:47:36;98947.03;;;20.62;78.95
53546;BME280;39432;51.902;10.844;2023-04-22T08:50:07;98951.00;;;20.32;77.52
53546;BME280;39432;51.902;10.844;2023-04-22T08:52:37;98943.16;;;20.34;77.29
53546;BME280;39432;51.902;10.844;2023-04-22T08:55:08;98947.84;;;20.63;70.58
53546;BME280;39432;51.902;10.844;2023-04-22T08:57:38;98935.53;;;20.85;69.34
53546;BME280;39432;51.902;10.844;2023-04-22T09:00:12;98939.31;;;21.01;67.56
53546;BME280;39432;51.902;10.844;2023-04-22T09:02:43;98940.50;;;21.24;69.67
53546;BME280;39432;51.902;10.844;2023-04-22T09:05:14;98923.78;;;21.00;71.47
53546;BME280;39432;51.902;10.844;2023-04-22T09:07:44;98929.69;;;21.44;68.10
53546;BME280;39432;51.902;10.844;2023-04-22T09:10:14;98924.59;;;21.13;62.37
53546;BME280;39432;51.902;10.844;2023-04-22T09:12:45;98932.59;;;21.60;59.30
53546;BME280;39432;51.902;10.844;2023-04-22T09:15:18;98926.19;;;21.35;59.75
53546;BME280;39432;51.902;10.844;2023-04-22T09:17:50;98930.16;;;21.82;58.96
53546;BME280;39432;51.902;10.844;2023-04-22T09:20:25;98920.84;;;21.91;59.98
53546;BME280;39432;51.902;10.844;2023-04-22T09:22:56;98919.13;;;22.11;57.06
53546;BME280;39432;51.902;10.844;2023-04-22T09:25:26;98915.59;;;22.26;55.07
53546;BME280;39432;51.902;10.844;2023-04-22T09:27:57;98915.00;;;22.08;55.11
53546;BME280;39432;51.902;10.844;2023-04-22T09:30:32;98916.91;;;22.16;54.63
53546;BME280;39432;51.902;10.844;2023-04-22T09:33:04;98912.25;;;21.96;56.15
53546;BME280;39432;51.902;10.844;2023-04-22T09:35:35;98906.03;;;22.67;55.09
53546;BME280;39432;51.902;10.844;2023-04-22T09:38:07;98906.44;;;22.25;54.79
53546;BME280;39432;51.902;10.844;2023-04-22T09:40:40;98910.63;;;22.87;55.87
53546;BME280;39432;51.902;10.844;2023-04-22T09:43:11;98915.47;;;22.91;51.29
53546;BME280;39432;51.902;10.844;2023-04-22T09:45:44;98906.78;;;23.39;53.84
53546;BME280;39432;51.902;10.844;2023-04-22T09:48:17;98917.06;;;22.35;53.30
53546;BME280;39432;51.902;10.844;2023-04-22T09:50:49;98900.09;;;22.69;52.42
53546;BME280;39432;51.902;10.844;2023-04-22T09:53:20;98905.69;;;22.97;55.12
53546;BME280;39432;51.902;10.844;2023-04-22T09:55:52;98897.28;;;22.53;52.71
53546;BME280;39432;51.902;10.844;2023-04-22T09:58:22;98904.41;;;22.38;52.90
53546;BME280;39432;51.902;10.844;2023-04-22T10:00:57;98899.44;;;22.31;52.94
53546;BME280;39432;51.902;10.844;2023-04-22T10:03:29;98893.38;;;22.85;52.09
53546;BME280;39432;51.902;10.844;2023-04-22T10:05:58;98897.75;;;22.99;50.06
53546;BME280;39432;51.902;10.844;2023-04-22T10:08:29;98903.34;;;22.99;51.35
53546;BME280;39432;51.902;10.844;2023-04-22T10:10:59;98893.50;;;22.89;49.59
53546;BME280;39432;51.902;10.844;2023-04-22T10:13:28;98880.25;;;23.30;47.75
53546;BME280;39432;51.902;10.844;2023-04-22T10:16:01;98887.78;;;23.29;49.15
53546;BME280;39432;51.902;10.844;2023-04-22T10:18:33;98884.00;;;23.37;48.99
53546;BME280;39432;51.902;10.844;2023-04-22T10:21:03;98878.28;;;22.86;47.70
53546;BME280;39432;51.902;10.844;2023-04-22T10:23:34;98871.50;;;23.31;47.89
53546;BME280;39432;51.902;10.844;2023-04-22T10:26:04;98880.50;;;23.25;48.18
53546;BME280;39432;51.902;10.844;2023-04-22T10:28:34;98878.84;;;23.39;47.90
53546;BME280;39432;51.902;10.844;2023-04-22T10:31:19;98869.06;;;23.30;47.68
53546;BME280;39432;51.902;10.844;2023-04-22T10:33:49;98867.72;;;23.08;48.51
53546;BME280;39432;51.902;10.844;2023-04-22T10:36:19;98869.13;;;23.02;48.26
53546;BME280;39432;51.902;10.844;2023-04-22T10:39:13;98859.59;;;23.03;49.69
53546;BME280;39432;51.902;10.844;2023-04-22T10:42:04;98868.03;;;22.62;49.20
53546;BME280;39432;51.902;10.844;2023-04-22T10:44:50;98870.13;;;22.66;48.62
53546;BME280;39432;51.902;10.844;2023-04-22T10:47:26;98874.13;;;22.80;48.29
53546;BME280;39432;51.902;10.844;2023-04-22T10:50:15;98855.66;;;23.04;49.16
53546;BME280;39432;51.902;10.844;2023-04-22T10:52:47;98868.16;;;22.66;48.33
53546;BME280;39432;51.902;10.844;2023-04-22T10:55:18;98868.56;;;22.80;47.26
53546;BME280;39432;51.902;10.844;2023-04-22T10:57:49;98870.53;;;22.52;47.91
53546;BME280;39432;51.902;10.844;2023-04-22T11:00:30;98864.97;;;22.96;48.77
53546;BME280;39432;51.902;10.844;2023-04-22T11:03:25;98868.66;;;22.56;46.85
53546;BME280;39432;51.902;10.844;2023-04-22T11:06:14;98860.03;;;22.89;46.86
53546;BME280;39432;51.902;10.844;2023-04-22T11:08:45;98856.28;;;23.13;44.87
53546;BME280;39432;51.902;10.844;2023-04-22T11:11:16;98857.06;;;23.29;45.60
53546;BME280;39432;51.902;10.844;2023-04-22T11:13:47;98857.44;;;23.28;46.07
53546;BME280;39432;51.902;10.844;2023-04-22T11:16:20;98857.97;;;23.02;43.85
53546;BME280;39432;51.902;10.844;2023-04-22T11:18:54;98849.59;;;23.18;44.30
53546;BME280;39432;51.902;10.844;2023-04-22T11:21:24;98859.66;;;23.85;44.29
53546;BME280;39432;51.902;10.844;2023-04-22T11:23:54;98848.50;;;23.70;43.69
53546;BME280;39432;51.902;10.844;2023-04-22T11:26:32;98847.03;;;23.60;45.24
53546;BME280;39432;51.902;10.844;2023-04-22T11:29:03;98846.53;;;23.38;45.73
53546;BME280;39432;51.902;10.844;2023-04-22T11:31:34;98847.81;;;23.25;44.41
53546;BME280;39432;51.902;10.844;2023-04-22T11:34:07;98842.59;;;23.90;45.71
53546;BME280;39432;51.902;10.844;2023-04-22T11:36:37;98846.09;;;23.36;46.19
53546;BME280;39432;51.902;10.844;2023-04-22T11:39:11;98838.13;;;23.70;44.97
53546;BME280;39432;51.902;10.844;2023-04-22T11:41:42;98830.53;;;23.04;44.00
53546;BME280;39432;51.902;10.844;2023-04-22T11:44:13;98836.38;;;23.30;42.17
53546;BME280;39432;51.902;10.844;2023-04-22T11:46:43;98838.97;;;23.39;43.62
53546;BME280;39432;51.902;10.844;2023-04-22T11:49:16;98836.69;;;23.45;42.45
53546;BME280;39432;51.902;10.844;2023-04-22T11:51:53;98831.22;;;24.18;43.83
53546;BME280;39432;51.902;10.844;2023-04-22T11:54:33;98826.97;;;23.89;44.18
53546;BME280;39432;51.902;10.844;2023-04-22T11:57:05;98831.25;;;23.83;45.21
53546;BME280;39432;51.902;10.844;2023-04-22T11:59:36;98825.22;;;24.01;44.00
53546;BME280;39432;51.902;10.844;2023-04-22T12:02:08;98829.53;;;24.14;44.76
53546;BME280;39432;51.902;10.844;2023-04-22T12:04:42;98824.69;;;23.25;46.46
53546;BME280;39432;51.902;10.844;2023-04-22T12:07:14;98821.75;;;23.53;45.20
53546;BME280;39432;51.902;10.844;2023-04-22T12:09:43;98819.03;;;23.72;43.92
53546;BME280;39432;51.902;10.844;2023-04-22T12:12:15;98816.03;;;23.30;42.11
53546;BME280;39432;51.902;10.844;2023-04-22T12:14:45;98815.91;;;23.42;42.97
53546;BME280;39432;51.902;10.844;2023-04-22T12:17:21;98813.53;;;23.60;43.15
53546;BME280;39432;51.902;10.844;2023-04-22T12:19:56;98815.97;;;23.46;41.33
53546;BME280;39432;51.902;10.844;2023-04-22T12:22:27;98811.00;;;23.55;43.11
53546;BME280;39432;51.902;10.844;2023-04-22T12:24:59;98808.97;;;23.52;42.58
53546;BME280;39432;51.902;10.844;2023-04-22T12:27:29;98815.03;;;23.06;43.64
53546;BME280;39432;51.902;10.844;2023-04-22T12:29:59;98804.22;;;23.36;43.15
53546;BME280;39432;51.902;10.844;2023-04-22T12:32:30;98805.50;;;23.74;42.81
53546;BME280;39432;51.902;10.844;2023-04-22T12:35:02;98805.81;;;23.37;42.81
53546;BME280;39432;51.902;10.844;2023-04-22T12:37:34;98809.78;;;23.36;42.51
53546;BME280;39432;51.902;10.844;2023-04-22T12:40:05;98809.53;;;23.42;44.69
53546;BME280;39432;51.902;10.844;2023-04-22T12:42:35;98800.94;;;23.50;45.26
53546;BME280;39432;51.902;10.844;2023-04-22T12:45:06;98793.31;;;23.82;44.55
53546;BME280;39432;51.902;10.844;2023-04-22T12:47:37;98797.78;;;23.52;44.79
53546;BME280;39432;51.902;10.844;2023-04-22T12:50:09;98790.00;;;23.61;46.19
53546;BME280;39432;51.902;10.844;2023-04-22T12:52:39;98782.66;;;23.88;46.87
53546;BME280;39432;51.902;10.844;2023-04-22T12:55:09;98792.41;;;23.78;47.97
53546;BME280;39432;51.902;10.844;2023-04-22T12:57:39;98787.50;;;23.91;47.37
53546;BME280;39432;51.902;10.844;2023-04-22T13:00:10;98783.00;;;24.06;46.26
53546;BME280;39432;51.902;10.844;2023-04-22T13:02:42;98775.38;;;24.03;46.58
53546;BME280;39432;51.902;10.844;2023-04-22T13:05:16;98772.44;;;23.25;46.28
53546;BME280;39432;51.902;10.844;2023-04-22T13:07:46;98771.31;;;23.81;47.15
53546;BME280;39432;51.902;10.844;2023-04-22T13:10:32;98772.13;;;23.81;48.55
53546;BME280;39432;51.902;10.844;2023-04-22T13:13:02;98771.59;;;23.40;45.75